createdAt,value
2024-01-06T00:00:50.813Z,53.40
2024-01-06T00:03:21.754Z,53.21
2024-01-06T00:05:52.622Z,53.66
2024-01-06T00:08:23.574Z,53.85
2024-01-06T00:10:58.546Z,53.88
2024-01-06T00:13:29.418Z,53.97
2024-01-06T00:16:00.532Z,53.90
2024-01-06T00:18:31.392Z,53.50
2024-01-06T00:21:02.472Z,53.63
2024-01-06T00:23:33.319Z,53.39
2024-01-06T00:26:08.085Z,53.16
2024-01-06T00:28:39.005Z,53.13
2024-01-06T00:31:10.238Z,53.33
2024-01-06T00:33:41.068Z,53.11
2024-01-06T00:36:12.717Z,52.85
2024-01-06T00:38:43.412Z,52.78
2024-01-06T00:41:16.826Z,52.08
2024-01-06T00:43:47.676Z,51.07
2024-01-06T00:46:18.624Z,51.20
2024-01-06T00:48:49.520Z,51.25
2024-01-06T00:51:20.364Z,50.53
2024-01-06T00:53:51.261Z,49.71
2024-01-06T00:56:24.500Z,49.47
2024-01-06T00:58:55.271Z,48.80
2024-01-06T01:01:26.024Z,48.82
2024-01-06T01:03:54.289Z,47.64
2024-01-06T01:06:25.165Z,47.87
2024-01-06T01:08:55.954Z,47.41
2024-01-06T01:11:29.314Z,47.28
2024-01-06T01:14:00.076Z,47.54
2024-01-06T01:16:31.076Z,47.58
2024-01-06T01:19:03.518Z,47.86
2024-01-06T01:21:34.382Z,47.57
2024-01-06T01:24:05.173Z,47.50
2024-01-06T01:26:38.568Z,46.83
2024-01-06T01:29:09.318Z,46.17
2024-01-06T01:31:40.089Z,46.76
2024-01-06T01:34:11.042Z,45.39
2024-01-06T01:36:42.084Z,45.25
2024-01-06T01:39:12.879Z,45.60
2024-01-06T01:41:46.553Z,45.47
2024-01-06T01:44:17.292Z,45.71
2024-01-06T01:46:48.294Z,45.38
2024-01-06T01:49:19.843Z,45.51
2024-01-06T01:51:50.869Z,45.43
2024-01-06T01:54:21.746Z,45.36
2024-01-06T01:56:55.430Z,45.24
2024-01-06T01:59:26.205Z,45.45
2024-01-06T02:01:57.072Z,45.64
2024-01-06T02:04:27.771Z,45.92
2024-01-06T02:06:59.341Z,46.60
2024-01-06T02:09:31.093Z,46.68
2024-01-06T02:12:04.462Z,47.14
2024-01-06T02:14:35.294Z,46.57
2024-01-06T02:17:06.078Z,45.97
2024-01-06T02:19:36.911Z,47.63
2024-01-06T02:22:10.469Z,47.68
2024-01-06T02:24:41.210Z,48.32
2024-01-06T02:27:11.951Z,49.08
2024-01-06T02:29:42.654Z,50.99
2024-01-06T02:32:13.362Z,52.18
2024-01-06T02:34:44.145Z,51.90
2024-01-06T02:37:17.553Z,52.72
2024-01-06T02:39:48.371Z,50.42
2024-01-06T02:42:19.259Z,49.24
2024-01-06T02:44:50.222Z,49.79
2024-01-06T02:47:21.315Z,48.68
2024-01-06T02:49:52.193Z,48.59
2024-01-06T02:52:26.017Z,48.15
2024-01-06T02:54:56.824Z,47.91
2024-01-06T02:57:27.561Z,48.38
2024-01-06T02:59:58.317Z,48.53
2024-01-06T03:02:29.031Z,49.32
2024-01-06T03:04:59.796Z,49.38
2024-01-06T03:07:36.117Z,49.52
2024-01-06T03:10:07.172Z,49.54
2024-01-06T03:12:38.059Z,49.43
2024-01-06T03:15:09.752Z,48.70
2024-01-06T03:17:40.512Z,48.82
2024-01-06T03:20:12.487Z,48.43
2024-01-06T03:22:45.694Z,49.29
2024-01-06T03:25:16.313Z,51.80
2024-01-06T03:27:48.469Z,50.07
2024-01-06T03:30:19.319Z,50.81
2024-01-06T03:32:50.168Z,50.22
2024-01-06T03:35:20.867Z,51.69
2024-01-06T03:37:54.202Z,51.73
2024-01-06T03:40:24.991Z,53.14
2024-01-06T03:42:55.736Z,53.06
2024-01-06T03:45:26.511Z,53.06
2024-01-06T03:47:57.262Z,52.45
2024-01-06T03:50:27.982Z,52.68
2024-01-06T03:53:01.240Z,52.87
2024-01-06T03:55:32.320Z,52.50
2024-01-06T03:58:02.987Z,52.21
2024-01-06T04:00:33.771Z,52.06
2024-01-06T04:03:04.467Z,52.02
2024-01-06T04:05:35.208Z,51.63
2024-01-06T04:08:09.550Z,51.09
2024-01-06T04:10:41.179Z,50.35
2024-01-06T04:13:12.142Z,50.10
2024-01-06T04:15:43.253Z,49.83
2024-01-06T04:18:14.118Z,49.12
2024-01-06T04:20:44.852Z,49.23
2024-01-06T04:23:18.252Z,49.40
2024-01-06T04:25:49.048Z,49.58
2024-01-06T04:28:19.908Z,49.64
2024-01-06T04:30:50.670Z,49.32
2024-01-06T04:33:21.685Z,49.72
2024-01-06T04:35:52.416Z,49.84
2024-01-06T04:38:25.789Z,49.84
2024-01-06T04:40:56.449Z,50.07
2024-01-06T04:43:27.228Z,49.98
2024-01-06T04:45:58.961Z,50.26
2024-01-06T04:48:29.873Z,50.27
2024-01-06T04:51:00.760Z,50.14
2024-01-06T04:53:34.242Z,50.63
2024-01-06T04:56:04.984Z,50.72
2024-01-06T04:58:36.323Z,51.05
2024-01-06T05:01:07.695Z,51.22
2024-01-06T05:03:38.574Z,51.53
2024-01-06T05:06:09.567Z,51.75
2024-01-06T05:08:46.287Z,52.20
2024-01-06T05:11:17.522Z,52.46
2024-01-06T05:13:48.160Z,52.65
2024-01-06T05:16:18.821Z,52.60
2024-01-06T05:18:49.909Z,52.98
2024-01-06T05:21:20.785Z,53.46
2024-01-06T05:23:54.089Z,53.69
2024-01-06T05:26:24.864Z,53.87
2024-01-06T05:28:56.522Z,53.96
2024-01-06T05:31:27.924Z,53.65
2024-01-06T05:33:58.766Z,53.59
2024-01-06T05:36:29.509Z,53.39
2024-01-06T05:39:02.909Z,53.30
2024-01-06T05:41:33.665Z,52.81
2024-01-06T05:44:04.522Z,52.43
2024-01-06T05:46:35.237Z,51.88
2024-01-06T05:49:06.117Z,52.01
2024-01-06T05:51:36.883Z,51.75
2024-01-06T05:54:10.326Z,51.97
2024-01-06T05:56:41.058Z,51.60
2024-01-06T05:59:11.931Z,51.88
2024-01-06T06:01:42.671Z,51.36
2024-01-06T06:04:13.609Z,51.57
2024-01-06T06:06:44.461Z,51.15
2024-01-06T06:09:17.949Z,50.97
2024-01-06T06:11:48.610Z,51.89
2024-01-06T06:14:19.292Z,52.03
2024-01-06T06:16:50.099Z,51.40
2024-01-06T06:19:21.735Z,51.68
2024-01-06T06:21:52.769Z,50.49
2024-01-06T06:24:26.275Z,50.42
2024-01-06T06:26:57.023Z,49.92
2024-01-06T06:29:27.713Z,50.27
2024-01-06T06:31:58.366Z,50.81
2024-01-06T06:34:29.125Z,50.16
2024-01-06T06:37:00.265Z,50.53
2024-01-06T06:39:33.746Z,50.03
2024-01-06T06:42:04.487Z,50.01
2024-01-06T06:44:35.412Z,48.79
2024-01-06T06:47:06.114Z,48.97
2024-01-06T06:49:36.816Z,49.36
2024-01-06T06:52:08.560Z,48.36
2024-01-06T06:54:42.032Z,48.79
2024-01-06T06:57:13.263Z,48.00
2024-01-06T06:59:44.039Z,48.27
2024-01-06T07:02:15.065Z,47.56
2024-01-06T07:04:46.487Z,47.48
2024-01-06T07:07:17.105Z,47.93
2024-01-06T07:09:50.396Z,47.61
2024-01-06T07:12:24.139Z,47.43
2024-01-06T07:14:54.890Z,47.18
2024-01-06T07:17:25.553Z,47.52
2024-01-06T07:19:56.727Z,46.81
2024-01-06T07:22:27.622Z,46.73
2024-01-06T07:25:01.114Z,47.16
2024-01-06T07:27:31.754Z,46.43
2024-01-06T07:30:02.556Z,46.96
2024-01-06T07:32:36.300Z,46.87
2024-01-06T07:35:08.323Z,46.89
2024-01-06T07:37:39.336Z,47.21
2024-01-06T07:40:14.647Z,47.28
2024-01-06T07:42:45.280Z,47.04
2024-01-06T07:45:16.494Z,47.73
2024-01-06T07:47:47.310Z,47.13
2024-01-06T07:50:17.985Z,47.67
2024-01-06T07:52:48.681Z,47.31
2024-01-06T07:55:22.255Z,47.33
2024-01-06T07:57:53.081Z,47.96
2024-01-06T08:00:24.421Z,47.70
2024-01-06T08:02:55.922Z,48.01
2024-01-06T08:05:26.608Z,47.62
2024-01-06T08:07:57.321Z,47.55
2024-01-06T08:10:31.038Z,48.00
2024-01-06T08:13:01.883Z,47.46
2024-01-06T08:15:33.891Z,47.98
2024-01-06T08:18:04.847Z,48.25
2024-01-06T08:20:35.751Z,47.64
2024-01-06T08:23:06.555Z,48.31
2024-01-06T08:25:39.920Z,47.69
2024-01-06T08:28:10.775Z,48.36
2024-01-06T08:30:41.892Z,47.92
2024-01-06T08:33:12.959Z,48.07
2024-01-06T08:35:43.734Z,48.75
2024-01-06T08:38:14.576Z,48.66
2024-01-06T08:40:49.520Z,48.82
2024-01-06T08:43:20.280Z,49.10
2024-01-06T08:45:52.329Z,49.05
2024-01-06T08:48:24.032Z,49.28
2024-01-06T08:50:54.915Z,49.40
2024-01-06T08:53:25.535Z,49.45
2024-01-06T08:55:59.008Z,49.76
2024-01-06T08:58:29.713Z,49.77
2024-01-06T09:01:01.310Z,49.90
2024-01-06T09:03:32.213Z,49.87
2024-01-06T09:06:03.321Z,49.80
2024-01-06T09:08:34.078Z,49.96
2024-01-06T09:11:07.819Z,50.44
2024-01-06T09:13:38.835Z,49.41
2024-01-06T09:16:09.652Z,49.68
2024-01-06T09:18:40.793Z,50.88
2024-01-06T09:21:11.522Z,51.95
2024-01-06T09:23:42.305Z,52.35
2024-01-06T09:26:17.778Z,52.27
2024-01-06T09:28:48.218Z,52.10
2024-01-06T09:31:18.965Z,51.58
2024-01-06T09:33:51.280Z,50.50
2024-01-06T09:36:22.377Z,49.93
2024-01-06T09:38:53.202Z,49.54
2024-01-06T09:41:26.813Z,49.25
2024-01-06T09:43:57.969Z,49.43
2024-01-06T09:46:31.061Z,48.93
2024-01-06T09:49:02.496Z,48.85
2024-01-06T09:51:33.300Z,48.64
2024-01-06T09:54:06.218Z,48.51
2024-01-06T09:56:39.671Z,48.48
2024-01-06T09:59:10.385Z,47.52
2024-01-06T10:01:41.114Z,47.14
2024-01-06T10:04:13.607Z,46.87
2024-01-06T10:06:46.353Z,47.66
2024-01-06T10:09:17.236Z,46.11
2024-01-06T10:11:50.783Z,45.41
2024-01-06T10:14:21.425Z,46.40
2024-01-06T10:16:52.666Z,46.56
2024-01-06T10:19:23.997Z,46.77
2024-01-06T10:21:54.862Z,46.54
2024-01-06T10:24:25.603Z,45.59
2024-01-06T10:26:59.081Z,43.85
2024-01-06T10:29:30.642Z,44.71
2024-01-06T10:32:02.404Z,43.97
2024-01-06T10:34:34.174Z,43.30
2024-01-06T10:37:07.441Z,43.73
2024-01-06T10:39:38.894Z,43.19
2024-01-06T10:42:13.781Z,43.70
2024-01-06T10:44:47.708Z,43.86
2024-01-06T10:47:21.215Z,43.78
2024-01-06T10:49:58.197Z,43.49
2024-01-06T10:52:31.791Z,43.29
2024-01-06T10:55:04.185Z,42.87
2024-01-06T10:57:38.732Z,42.52
2024-01-06T11:00:11.405Z,42.96
2024-01-06T11:02:43.550Z,42.48
2024-01-06T11:05:15.061Z,41.40
2024-01-06T11:07:48.615Z,42.00
2024-01-06T11:10:21.648Z,42.32
2024-01-06T11:13:14.372Z,41.29
2024-01-06T11:15:47.085Z,41.90
2024-01-06T11:18:37.290Z,41.94
2024-01-06T11:21:26.789Z,43.69
2024-01-06T11:24:19.388Z,43.40
2024-01-06T11:26:53.585Z,44.03
2024-01-06T11:29:27.343Z,43.32
2024-01-06T11:32:24.136Z,44.02
2024-01-06T11:34:56.567Z,44.85
2024-01-06T11:37:29.263Z,45.22
2024-01-06T11:40:00.212Z,46.00
2024-01-06T11:42:37.095Z,45.85
2024-01-06T11:45:11.544Z,46.15
2024-01-06T11:47:43.869Z,45.35
2024-01-06T11:50:14.640Z,45.78
2024-01-06T11:52:45.681Z,46.32
2024-01-06T11:55:16.943Z,46.49
2024-01-06T11:57:48.584Z,46.74
2024-01-06T12:00:22.868Z,46.85
2024-01-06T12:02:53.695Z,47.43
2024-01-06T12:05:26.310Z,47.85
2024-01-06T12:07:58.840Z,48.12
2024-01-06T12:10:31.699Z,48.05
2024-01-06T12:13:03.824Z,48.25
2024-01-06T12:15:38.997Z,48.56
2024-01-06T12:18:11.644Z,48.83
2024-01-06T12:20:43.591Z,48.63
2024-01-06T12:23:17.261Z,48.37
2024-01-06T12:25:51.159Z,49.01
2024-01-06T12:28:21.994Z,49.10
2024-01-06T12:30:55.693Z,49.58
2024-01-06T12:33:26.726Z,49.45
2024-01-06T12:35:57.736Z,49.82
2024-01-06T12:38:29.428Z,50.10
2024-01-06T12:41:00.564Z,49.75
2024-01-06T12:43:31.551Z,49.42
2024-01-06T12:46:05.049Z,49.44
2024-01-06T12:48:35.949Z,49.63
2024-01-06T12:51:07.101Z,48.85
2024-01-06T12:53:37.862Z,49.34
2024-01-06T12:56:09.817Z,49.64
2024-01-06T12:58:40.560Z,49.05
2024-01-06T13:01:14.433Z,48.98
2024-01-06T13:03:45.409Z,49.54
2024-01-06T13:06:17.462Z,49.19
2024-01-06T13:08:48.897Z,48.21
2024-01-06T13:11:19.622Z,48.05
2024-01-06T13:13:50.368Z,48.20
2024-01-06T13:16:23.936Z,48.65
2024-01-06T13:18:55.870Z,48.85
2024-01-06T13:21:26.871Z,48.81
2024-01-06T13:24:02.457Z,48.91
2024-01-06T13:26:33.332Z,48.13
2024-01-06T13:29:03.019Z,48.55
2024-01-06T13:31:38.456Z,51.55
2024-01-06T13:34:08.959Z,53.49
2024-01-06T13:36:39.779Z,55.17
2024-01-06T13:39:18.664Z,55.74
2024-01-06T13:41:49.472Z,56.77
2024-01-06T13:44:20.373Z,57.13
2024-01-06T13:46:56.142Z,57.29
2024-01-06T13:49:29.601Z,57.57
2024-01-06T13:52:00.858Z,57.71
2024-01-06T13:54:31.766Z,57.86
2024-01-06T13:57:02.726Z,58.28
2024-01-06T13:59:33.349Z,58.78
2024-01-06T14:02:07.501Z,59.24
2024-01-06T14:04:38.593Z,60.29
2024-01-06T14:07:09.818Z,61.09
2024-01-06T14:09:40.743Z,62.04
2024-01-06T14:12:11.586Z,62.64
2024-01-06T14:14:43.059Z,63.44
2024-01-06T14:17:16.555Z,64.01
2024-01-06T14:19:48.383Z,64.56
2024-01-06T14:22:19.320Z,65.00
2024-01-06T14:24:51.245Z,65.57
2024-01-06T14:27:22.211Z,66.33
2024-01-06T14:29:54.995Z,65.86
2024-01-06T14:32:28.479Z,65.53
2024-01-06T14:34:59.440Z,66.33
2024-01-06T14:37:30.294Z,65.56
2024-01-06T14:40:06.410Z,65.77
2024-01-06T14:42:37.847Z,65.48
2024-01-06T14:45:09.770Z,65.40
2024-01-06T14:47:43.411Z,65.16
2024-01-06T14:50:14.438Z,65.51
2024-01-06T14:52:45.102Z,65.25
2024-01-06T14:55:16.371Z,64.97
2024-01-06T14:57:47.616Z,65.42
2024-01-06T15:00:19.733Z,65.31
2024-01-06T15:02:53.858Z,64.99
2024-01-06T15:05:27.699Z,65.43
2024-01-06T15:07:59.085Z,65.81
2024-01-06T15:10:30.461Z,65.63
2024-01-06T15:13:01.915Z,65.93
2024-01-06T15:15:33.542Z,66.08
2024-01-06T15:18:07.830Z,66.04
2024-01-06T15:20:39.079Z,66.06
2024-01-06T15:23:10.420Z,66.43
2024-01-06T15:25:45.631Z,66.39
2024-01-06T15:28:17.716Z,66.04
2024-01-06T15:30:49.037Z,66.09
2024-01-06T15:33:29.108Z,66.76
2024-01-06T15:36:00.617Z,66.65
2024-01-06T15:38:32.006Z,66.78
2024-01-06T15:41:05.659Z,67.85
2024-01-06T15:43:39.196Z,67.95
2024-01-06T15:46:10.051Z,66.32
2024-01-06T15:48:43.473Z,64.27
2024-01-06T15:51:14.198Z,67.99
2024-01-06T15:53:44.900Z,77.11
2024-01-06T15:56:15.542Z,78.86
2024-01-06T15:58:46.233Z,77.83
2024-01-06T16:01:17.109Z,77.79
2024-01-06T16:03:50.795Z,77.40
2024-01-06T16:06:22.624Z,77.26
2024-01-06T16:08:53.497Z,77.39
2024-01-06T16:11:24.204Z,77.63
2024-01-06T16:13:55.277Z,77.18
2024-01-06T16:16:25.937Z,77.10
2024-01-06T16:18:59.577Z,76.73
2024-01-06T16:21:31.262Z,76.54
2024-01-06T16:24:02.030Z,76.33
2024-01-06T16:26:32.948Z,76.37
2024-01-06T16:29:03.829Z,75.68
2024-01-06T16:31:34.763Z,75.84
2024-01-06T16:34:08.334Z,75.96
2024-01-06T16:36:39.175Z,75.66
2024-01-06T16:39:10.374Z,75.37
2024-01-06T16:41:41.058Z,75.67
2024-01-06T16:44:11.838Z,75.96
2024-01-06T16:46:42.684Z,75.67
2024-01-06T16:49:16.152Z,77.01
2024-01-06T16:51:47.215Z,76.40
2024-01-06T16:54:18.108Z,70.82
2024-01-06T16:56:48.950Z,72.83
2024-01-06T16:59:19.752Z,77.91
2024-01-06T17:01:50.724Z,81.21
2024-01-06T17:04:24.496Z,83.60
2024-01-06T17:06:56.599Z,85.13
2024-01-06T17:09:29.426Z,86.61
2024-01-06T17:12:00.409Z,86.82
2024-01-06T17:14:31.233Z,87.37
2024-01-06T17:17:01.980Z,87.67
2024-01-06T17:19:36.052Z,87.65
2024-01-06T17:22:07.125Z,91.61
2024-01-06T17:24:38.604Z,89.32
2024-01-06T17:27:09.869Z,87.95
2024-01-06T17:29:40.589Z,86.95
2024-01-06T17:32:15.749Z,85.96
2024-01-06T17:34:51.825Z,85.00
2024-01-06T17:37:22.923Z,84.16
2024-01-06T17:39:53.762Z,83.23
2024-01-06T17:42:25.867Z,82.62
2024-01-06T17:44:56.880Z,82.08
2024-01-06T17:47:27.649Z,81.44
2024-01-06T17:50:01.290Z,80.95
2024-01-06T17:52:32.285Z,80.54
2024-01-06T17:55:03.865Z,80.16
2024-01-06T17:57:36.375Z,79.85
2024-01-06T18:00:10.523Z,79.51
2024-01-06T18:02:41.670Z,78.31
2024-01-06T18:05:15.760Z,73.22
2024-01-06T18:07:46.668Z,74.63
2024-01-06T18:10:17.465Z,79.01
2024-01-06T18:12:49.138Z,83.04
2024-01-06T18:15:20.301Z,85.40
2024-01-06T18:17:51.187Z,87.47
2024-01-06T18:20:25.174Z,88.09
2024-01-06T18:22:56.079Z,88.49
2024-01-06T18:25:26.903Z,88.79
2024-01-06T18:27:57.879Z,88.52
2024-01-06T18:30:28.697Z,88.58
2024-01-06T18:33:01.823Z,88.69
2024-01-06T18:35:35.141Z,88.98
2024-01-06T18:38:05.841Z,89.07
2024-01-06T18:40:36.513Z,88.86
2024-01-06T18:43:07.686Z,88.99
2024-01-06T18:45:38.492Z,92.13
2024-01-06T18:48:12.261Z,91.59
2024-01-06T18:50:47.910Z,87.04
2024-01-06T18:53:19.723Z,85.71
2024-01-06T18:55:50.602Z,86.88
2024-01-06T18:58:21.816Z,91.48
2024-01-06T19:00:52.690Z,90.24
2024-01-06T19:03:23.504Z,89.19
2024-01-06T19:05:57.037Z,88.73
2024-01-06T19:08:28.058Z,87.80
2024-01-06T19:10:59.090Z,86.73
2024-01-06T19:13:30.438Z,86.12
2024-01-06T19:16:01.696Z,85.25
2024-01-06T19:18:33.104Z,84.58
2024-01-06T19:21:08.410Z,83.89
2024-01-06T19:23:39.495Z,82.95
2024-01-06T19:26:13.532Z,82.69
2024-01-06T19:28:44.260Z,82.05
2024-01-06T19:31:15.060Z,81.67
2024-01-06T19:33:46.451Z,81.74
2024-01-06T19:36:19.901Z,81.17
2024-01-06T19:38:50.666Z,81.03
2024-01-06T19:41:21.478Z,80.83
2024-01-06T19:43:52.193Z,80.54
2024-01-06T19:46:22.925Z,80.22
2024-01-06T19:48:53.708Z,80.03
2024-01-06T19:51:28.552Z,79.94
2024-01-06T19:53:59.215Z,79.77
2024-01-06T19:56:29.951Z,79.85
2024-01-06T19:59:00.711Z,79.56
2024-01-06T20:01:31.491Z,79.83
2024-01-06T20:04:02.379Z,79.68
2024-01-06T20:06:35.992Z,79.56
2024-01-06T20:09:08.047Z,79.50
2024-01-06T20:11:38.869Z,78.76
2024-01-06T20:14:10.042Z,79.97
2024-01-06T20:16:40.792Z,78.88
2024-01-06T20:19:11.821Z,80.41
2024-01-06T20:21:45.381Z,79.33
2024-01-06T20:24:16.320Z,80.82
2024-01-06T20:26:47.076Z,80.48
2024-01-06T20:29:17.945Z,80.37
2024-01-06T20:31:48.931Z,80.24
2024-01-06T20:34:19.872Z,80.23
2024-01-06T20:36:53.302Z,80.85
2024-01-06T20:39:24.100Z,80.80
2024-01-06T20:41:54.949Z,80.89
2024-01-06T20:44:25.777Z,81.17
2024-01-06T20:46:56.672Z,81.04
2024-01-06T20:49:29.760Z,81.10
2024-01-06T20:52:04.452Z,80.86
2024-01-06T20:54:35.095Z,80.73
2024-01-06T20:57:06.200Z,80.46
2024-01-06T20:59:36.881Z,80.59
2024-01-06T21:02:07.980Z,80.43
2024-01-06T21:04:38.656Z,80.73
2024-01-06T21:07:12.017Z,80.03
2024-01-06T21:09:42.794Z,80.32
2024-01-06T21:12:13.519Z,79.93
2024-01-06T21:14:44.175Z,80.29
2024-01-06T21:17:14.888Z,79.66
2024-01-06T21:19:46.350Z,79.59
2024-01-06T21:22:20.789Z,79.17
2024-01-06T21:24:51.703Z,79.21
2024-01-06T21:27:22.634Z,78.17
2024-01-06T21:29:53.413Z,78.40
2024-01-06T21:32:24.116Z,77.88
2024-01-06T21:34:54.999Z,77.84
2024-01-06T21:37:29.398Z,77.48
2024-01-06T21:40:05.721Z,77.20
2024-01-06T21:42:36.584Z,76.88
2024-01-06T21:45:08.056Z,75.05
2024-01-06T21:47:40.243Z,76.92
2024-01-06T21:50:12.679Z,75.54
2024-01-06T21:52:47.204Z,75.83
2024-01-06T21:55:18.671Z,74.79
2024-01-06T21:57:49.461Z,74.70
2024-01-06T22:00:21.223Z,73.96
2024-01-06T22:02:52.989Z,73.83
2024-01-06T22:05:24.049Z,72.82
2024-01-06T22:07:57.366Z,73.49
2024-01-06T22:10:33.878Z,73.06
2024-01-06T22:13:05.767Z,72.65
2024-01-06T22:15:36.896Z,72.43
2024-01-06T22:18:08.071Z,72.54
2024-01-06T22:20:38.935Z,71.84
2024-01-06T22:23:12.181Z,70.44
2024-01-06T22:25:42.801Z,72.05
2024-01-06T22:28:15.565Z,70.64
2024-01-06T22:30:46.445Z,71.63
2024-01-06T22:33:18.530Z,70.57
2024-01-06T22:35:49.451Z,71.17
2024-01-06T22:38:22.715Z,70.29
2024-01-06T22:40:53.894Z,71.47
2024-01-06T22:43:24.615Z,71.44
2024-01-06T22:45:55.395Z,70.72
2024-01-06T22:48:26.268Z,72.40
2024-01-06T22:50:57.426Z,71.79
2024-01-06T22:53:30.797Z,72.48
2024-01-06T22:56:01.526Z,71.94
2024-01-06T22:58:34.415Z,72.64
2024-01-06T23:01:07.115Z,71.88
2024-01-06T23:03:39.178Z,72.31
2024-01-06T23:06:10.130Z,71.79
2024-01-06T23:08:44.978Z,71.42
2024-01-06T23:11:17.585Z,73.06
2024-01-06T23:13:48.299Z,72.78
2024-01-06T23:16:19.782Z,73.64
2024-01-06T23:18:50.658Z,73.38
2024-01-06T23:21:21.633Z,73.59
2024-01-06T23:23:54.918Z,73.83
2024-01-06T23:26:25.603Z,73.82
2024-01-06T23:28:56.328Z,72.67
2024-01-06T23:31:27.051Z,71.69
2024-01-06T23:33:58.162Z,74.81
2024-01-06T23:36:29.015Z,74.24
2024-01-06T23:39:02.302Z,75.09
2024-01-06T23:41:32.956Z,74.32
2024-01-06T23:44:03.605Z,74.63
2024-01-06T23:46:34.724Z,73.82
2024-01-06T23:49:05.462Z,74.13
2024-01-06T23:51:36.218Z,72.84
2024-01-06T23:54:09.692Z,72.24
2024-01-06T23:56:40.338Z,73.49
2024-01-06T23:59:11.063Z,73.03
